»·PEaware :: N8735K KSNA-KSMX

N8735K :: KSNA-KSMX

FLIGHT INFORMATION

Flight Status: Arrived
Operator: Privately registered:
United States
More flights under this callsign
Pilot: Jeff K. (12978)
Aircraft: BEECH AIRCRAFT BARON
(BE58)
More flights by this aircraft type
Origin: KSNA John Wayne-Orange Co
United States
Destination: KSMX Santa Maria Pub/Capt Hancock
United States
More flights between these airports :: More routes between these airports
Route: +SLI V23 LAX V299 VTU V25 RZS V12 GVO V27
File this flight plan on PilotEdge
Remarks:
Altitude:
(Current/Filed)
8,000ft
Speed:
(Current/Filed)
160kts
Departed: 28-Oct-17 08:22 PM
Arrived: 28-Oct-17 09:32 PM
Distance/Time
Traveled:
148nm/1:10
Distance/Time
To Go:
Arrived

Flight Plot

Page will automatically refresh every two minutes.

Flight plan parsing failed; only flown route is shown


Map Options




Map Legend


Flown Route
Filed Route
Departure Airport
Arrival Airport
Navaid (VOR, NDB)
Fix

Horizontal Profiles

Position Reports

Time Latitude Longitude Heading Altitude Ground
Speed
28-Oct-17 20:08 33.667760 -117.871422 9 57ft 0kts
28-Oct-17 20:09 33.667760 -117.871422 9 57ft 0kts
28-Oct-17 20:10 33.667760 -117.871422 9 57ft 0kts
28-Oct-17 20:11 33.667760 -117.871422 9 57ft 0kts
28-Oct-17 20:12 33.667760 -117.871422 9 57ft 0kts
28-Oct-17 20:13 33.667760 -117.871422 9 57ft 0kts
28-Oct-17 20:14 33.667760 -117.871422 9 57ft 0kts
28-Oct-17 20:15 33.667760 -117.871422 9 57ft 0kts
28-Oct-17 20:16 33.667760 -117.871422 9 57ft 0kts
28-Oct-17 20:17 33.667760 -117.871422 9 57ft 0kts
28-Oct-17 20:18 33.667760 -117.871422 9 57ft 0kts
28-Oct-17 20:19 33.667760 -117.871422 9 57ft 0kts
28-Oct-17 20:20 33.667760 -117.871422 9 57ft 0kts
28-Oct-17 20:21 33.667880 -117.871478 318 57ft 6kts
28-Oct-17 20:22 33.669689 -117.870378 41 57ft 19kts
28-Oct-17 20:23 33.673524 -117.867526 29 57ft 17kts
28-Oct-17 20:24 33.679197 -117.863874 27 57ft 13kts
28-Oct-17 20:25 33.679840 -117.863519 0 57ft 0kts
28-Oct-17 20:26 33.679883 -117.863536 332 57ft 4kts
28-Oct-17 20:27 33.666423 -117.873682 216 652ft 100kts
28-Oct-17 20:28 33.647883 -117.900866 231 1887ft 115kts
28-Oct-17 20:29 33.623043 -117.938599 232 2020ft 159kts
28-Oct-17 20:30 33.605601 -117.984316 285 2601ft 148kts
28-Oct-17 20:31 33.630312 -118.021497 310 3714ft 143kts
28-Oct-17 20:32 33.658517 -118.055662 312 4713ft 145kts
28-Oct-17 20:33 33.685014 -118.091656 311 5672ft 144kts
28-Oct-17 20:34 33.713499 -118.129822 312 6054ft 166kts
28-Oct-17 20:35 33.745360 -118.173244 312 6081ft 176kts
28-Oct-17 20:36 33.778551 -118.217483 312 6072ft 179kts
28-Oct-17 20:37 33.811835 -118.262286 309 6035ft 180kts
28-Oct-17 20:38 33.843203 -118.309010 308 6029ft 180kts
28-Oct-17 20:39 33.876405 -118.353972 310 6019ft 180kts
28-Oct-17 20:40 33.909878 -118.398895 312 5999ft 180kts
28-Oct-17 20:41 33.942429 -118.444408 303 6000ft 180kts
28-Oct-17 20:42 33.954842 -118.501858 296 5962ft 179kts
28-Oct-17 20:43 33.971726 -118.558249 285 5979ft 179kts
28-Oct-17 20:44 33.989583 -118.614295 294 5978ft 180kts
28-Oct-17 20:45 34.007922 -118.668952 290 5989ft 179kts
28-Oct-17 20:46 34.024710 -118.725547 289 6014ft 179kts
28-Oct-17 20:47 34.040607 -118.782528 283 6024ft 179kts
28-Oct-17 20:48 34.057351 -118.838931 290 6050ft 179kts
28-Oct-17 20:49 34.073158 -118.894535 284 6400ft 166kts
28-Oct-17 20:50 34.084297 -118.943041 289 7438ft 142kts
28-Oct-17 20:51 34.097473 -118.988501 288 7995ft 155kts
28-Oct-17 20:52 34.112963 -119.039124 289 7942ft 171kts
28-Oct-17 20:53 34.134699 -119.089668 301 8020ft 171kts
28-Oct-17 20:54 34.160400 -119.138263 304 8020ft 172kts
28-Oct-17 20:55 34.187741 -119.185865 306 8020ft 172kts
28-Oct-17 20:56 34.216507 -119.232884 306 8021ft 176kts
28-Oct-17 20:57 34.245429 -119.281335 305 8020ft 178kts
28-Oct-17 20:58 34.273230 -119.331088 301 8020ft 179kts
28-Oct-17 20:59 34.299271 -119.382383 301 8020ft 179kts
28-Oct-17 21:00 34.325319 -119.433678 301 8020ft 179kts
28-Oct-17 21:01 34.351336 -119.484899 301 8020ft 179kts
28-Oct-17 21:02 34.377381 -119.536157 301 8020ft 179kts
28-Oct-17 21:03 34.403662 -119.587279 302 8020ft 179kts
28-Oct-17 21:04 34.430548 -119.638150 302 8020ft 179kts
28-Oct-17 21:05 34.457434 -119.688655 303 8020ft 179kts
28-Oct-17 21:06 34.484961 -119.738769 303 7830ft 177kts
28-Oct-17 21:07 34.512412 -119.788837 303 6885ft 180kts
28-Oct-17 21:08 34.539882 -119.839894 302 6038ft 177kts
28-Oct-17 21:09 34.564566 -119.886661 302 6013ft 164kts
28-Oct-17 21:10 34.589665 -119.934105 302 6010ft 171kts
28-Oct-17 21:11 34.615660 -119.983226 302 6009ft 172kts
28-Oct-17 21:12 34.641435 -120.031920 302 6010ft 172kts
28-Oct-17 21:13 34.667351 -120.080870 302 6011ft 172kts
28-Oct-17 21:14 34.693307 -120.129888 302 6010ft 172kts
28-Oct-17 21:15 34.719267 -120.178907 302 6014ft 173kts
28-Oct-17 21:16 34.745196 -120.227859 302 6010ft 172kts
28-Oct-17 21:17 34.771227 -120.276998 302 6010ft 172kts
28-Oct-17 21:18 34.797130 -120.325886 302 6009ft 172kts
28-Oct-17 21:19 34.822915 -120.374543 302 6021ft 173kts
28-Oct-17 21:20 34.849577 -120.424797 303 5427ft 180kts
28-Oct-17 21:21 34.876822 -120.476160 303 4459ft 176kts
28-Oct-17 21:22 34.900948 -120.521637 303 3450ft 142kts
28-Oct-17 21:23 34.920165 -120.557935 303 3004ft 122kts
28-Oct-17 21:24 34.942332 -120.593999 312 3010ft 139kts
28-Oct-17 21:25 34.968648 -120.628599 313 2999ft 138kts
28-Oct-17 21:26 34.994948 -120.663099 312 3017ft 141kts
28-Oct-17 21:27 35.021545 -120.697988 312 3000ft 139kts
28-Oct-17 21:28 35.051340 -120.707110 54 2829ft 116kts
28-Oct-17 21:29 35.047822 -120.668417 103 2866ft 123kts
28-Oct-17 21:30 35.038137 -120.626903 115 2861ft 129kts
28-Oct-17 21:31 35.016215 -120.593529 132 2745ft 127kts
28-Oct-17 21:32 34.990980 -120.563331 135 2570ft 127kts
28-Oct-17 21:33 34.965550 -120.533123 135 2034ft 125kts
28-Oct-17 21:34 34.942306 -120.505044 135 1477ft 119kts
28-Oct-17 21:35 34.919503 -120.477774 137 780ft 109kts
28-Oct-17 21:36 34.900437 -120.454864 134 262ft 48kts
28-Oct-17 21:37 34.898743 -120.450766 53 262ft 0kts
28-Oct-17 21:38 34.901779 -120.454056 315 262ft 28kts

Navigation Log

Ident Type
Flight plan parsing failed, navigation log unavailable